Netcong, NJ

6:19 PM EST on January 26, 2015 (GMT -0500)
Andover | Change Station
CLOSE
Current Station
Airport
Location: Andover,
Elevation: 581 ft
Nearby Weather Stations
Active Advisory: Winter Storm Warning Active Notice: Public Information Statement

Elev 581 ft 41.01 °N, 74.74 °W | Updated 25 minutes ago

Snow
Snow
18 °F
Feels Like 7 °F
N
9
Wind Variable Wind from NE
Gusts 21 mph

Today
High -- | Low -- °F
--% Chance of Precip.
Yesterday
High -- | Low -- °F
Precip. -- in
7:14 AM 5:08 PM
Waxing Crescent, 47% visible
Pressure 29.90 in
Visibility -9999.0 miles
Clouds
Windchill 7 °F
Dew Point 14 °F
Humidity 84%
Rainfall 0.22 in
Snow Depth Not available.
UV Not available.
Pollen .10 out of 12
Air Quality Not available.
Flu Activity Not available.
METAR K12N 262254Z AUTO 04008KT M08/M10 A2985 RMK AO1 SLP125 T10781100

More Conditions Fewer Conditions

Pressure 29.90 in
Visibility -9999.0 miles
Clouds
Windchill 7 °F
Dew Point 14 °F
Humidity 84%
Rainfall 0.22 in
Snow Depth Not available.
UV Not available.
Pollen .10 out of 12
Air Quality Not available.
Flu Activity Not available.
METAR K12N 262254Z AUTO 04008KT M08/M10 A2985 RMK AO1 SLP125 T10781100

More Conditions Fewer Conditions

10-Day Weather Forecast

Almanac

Astronomy

Jan. 26, 2015 Rise Set
Actual Time
Civil Twilight
Nautical Twilight
Astronomical Twilight
Moon
Length of Visible Light
Length of Day
Tomorrow will be .
, % of the Moon is Illuminated

Today's Extremes

State Highs State Lows

Community

WunderPhotos

Upload Photos

1,790,392 photos uploaded!

WunderBlogs® & News

Nearby

Air Quality

  Air Quality AQ Index Pollutant
Not available.

Snow Depth

Station Depth Elevation

Earthquake Activity

City Distance Mag. Time & Date
Minimum magnitude displayed is 2.5.

Coastal Water Temperatures

Place Temperature

Nearby Weather Stations